Time;durP1;ratioP1;P1;durP2;ratioP2;P2;SDS_P1;SDS_P2;PMS_P1;PMS_P2;Temp;Humidity;BMP_temperature;BMP_pressure;BME280_temperature;BME280_humidity;BME280_pressure;Samples;Min_cycle;Max_cycle;Signal;HPM_P1;HPM_P2
2023/09/02 00:00:48;;;;;;;3.08;1.10;;;17.30;69.10;;;;;;5115069;27;20062;-61
2023/09/02 00:03:13;;;;;;;1.05;0.75;;;17.20;69.00;;;;;;5106763;27;20039;-60
2023/09/02 00:05:39;;;;;;;2.33;1.00;;;17.20;69.10;;;;;;5102489;28;20051;-60
2023/09/02 00:08:05;;;;;;;1.65;0.90;;;17.20;69.10;;;;;;5101506;27;20039;-60
2023/09/02 00:10:30;;;;;;;2.30;0.98;;;17.10;69.00;;;;;;5101351;27;20054;-60
2023/09/02 00:12:56;;;;;;;3.85;0.88;;;17.10;69.10;;;;;;5103109;27;20094;-60
2023/09/02 00:15:22;;;;;;;2.45;0.90;;;17.10;69.20;;;;;;5104758;27;20171;-60
2023/09/02 00:17:47;;;;;;;1.40;0.93;;;17.10;69.30;;;;;;5106739;27;20027;-61
2023/09/02 00:20:13;;;;;;;6.93;0.98;;;17.00;69.20;;;;;;5110856;27;20421;-61
2023/09/02 00:22:39;;;;;;;1.27;0.90;;;17.00;69.30;;;;;;5103801;27;20050;-60
2023/09/02 00:25:05;;;;;;;4.00;0.90;;;16.90;69.40;;;;;;5108565;27;20046;-60
2023/09/02 00:27:31;;;;;;;3.25;1.02;;;17.00;69.60;;;;;;5104631;27;20536;-60
2023/09/02 00:29:56;;;;;;;5.05;1.08;;;16.90;69.50;;;;;;5106684;27;20035;-60
2023/09/02 00:32:23;;;;;;;5.40;1.17;;;16.90;69.50;;;;;;5103112;27;20024;-61
2023/09/02 00:34:49;;;;;;;1.33;1.10;;;16.90;69.40;;;;;;5100575;28;20019;-60
2023/09/02 00:37:14;;;;;;;2.15;1.20;;;16.90;69.30;;;;;;5097667;27;20024;-59
2023/09/02 00:39:41;;;;;;;2.65;1.30;;;16.90;69.40;;;;;;5113367;27;20043;-61
2023/09/02 00:42:10;;;;;;;2.55;1.60;;;16.80;69.60;;;;;;5107601;27;20052;-61
2023/09/02 00:44:36;;;;;;;2.55;1.00;;;16.80;69.70;;;;;;5108800;27;20015;-61
2023/09/02 00:47:04;;;;;;;1.42;1.20;;;16.80;69.80;;;;;;5103521;27;20034;-60
2023/09/02 00:49:32;;;;;;;3.88;1.40;;;16.80;70.00;;;;;;5109809;27;20047;-60
2023/09/02 00:51:57;;;;;;;2.72;1.30;;;16.80;70.10;;;;;;5106840;27;20312;-60
2023/09/02 00:54:23;;;;;;;1.15;1.00;;;16.80;70.20;;;;;;5101116;28;20100;-60
2023/09/02 00:56:49;;;;;;;3.60;1.08;;;16.70;70.10;;;;;;5103527;28;20032;-60
2023/09/02 00:59:15;;;;;;;3.80;1.25;;;16.80;70.20;;;;;;5110814;27;20028;-59
2023/09/02 01:01:43;;;;;;;3.03;0.85;;;16.70;70.30;;;;;;5109336;27;20494;-60
2023/09/02 01:04:08;;;;;;;2.03;1.13;;;16.70;70.50;;;;;;5103983;27;20032;-60
2023/09/02 01:06:34;;;;;;;3.28;1.17;;;16.70;70.50;;;;;;5106238;27;20043;-61
2023/09/02 01:09:00;;;;;;;1.70;0.95;;;16.70;70.60;;;;;;5097928;27;20040;-60
2023/09/02 01:11:26;;;;;;;3.70;1.20;;;16.70;70.60;;;;;;5102017;27;20015;-60
2023/09/02 01:13:52;;;;;;;3.17;1.00;;;16.70;70.70;;;;;;5103890;27;20479;-60
2023/09/02 01:16:18;;;;;;;1.85;1.10;;;16.70;70.90;;;;;;5104524;27;20107;-61
2023/09/02 01:18:44;;;;;;;4.78;0.95;;;16.60;70.90;;;;;;5110981;27;20094;-61
2023/09/02 01:21:19;;;;;;;2.45;0.80;;;16.60;70.90;;;;;;5083617;27;20032;-60
2023/09/02 01:24:05;;;;;;;1.40;1.00;;;16.60;71.50;;;;;;5105494;28;20047;-60
2023/09/02 01:27:09;;;;;;;2.97;1.00;;;16.60;71.80;;;;;;5098044;27;20490;-60
2023/09/02 01:29:46;;;;;;;4.55;0.90;;;16.60;71.60;;;;;;5097616;28;20032;-60
2023/09/02 01:32:13;;;;;;;4.05;1.25;;;16.60;71.10;;;;;;5101364;27;20046;-60
2023/09/02 01:34:41;;;;;;;4.15;1.55;;;16.50;70.70;;;;;;5100506;28;20104;-60
2023/09/02 01:37:09;;;;;;;1.00;0.90;;;16.50;70.80;;;;;;5100527;28;20080;-60
2023/09/02 01:39:37;;;;;;;4.53;1.00;;;16.50;70.90;;;;;;5086598;28;20442;-61
2023/09/02 01:42:05;;;;;;;2.95;1.20;;;16.50;70.90;;;;;;5107310;28;20030;-61
2023/09/02 01:44:32;;;;;;;2.17;0.90;;;16.50;71.10;;;;;;5096685;28;20089;-60
2023/09/02 01:47:01;;;;;;;1.10;1.00;;;16.50;71.20;;;;;;5105396;28;20036;-60
2023/09/02 01:49:27;;;;;;;2.28;0.93;;;16.50;71.00;;;;;;5101678;28;20028;-61
2023/09/02 01:51:54;;;;;;;4.43;1.00;;;16.40;71.00;;;;;;5099560;28;20518;-60
2023/09/02 01:54:20;;;;;;;4.30;0.98;;;16.40;71.00;;;;;;5101261;28;20028;-60
2023/09/02 01:56:46;;;;;;;3.30;1.10;;;16.40;71.10;;;;;;5106523;28;20043;-60
2023/09/02 01:59:12;;;;;;;3.53;1.02;;;16.40;71.20;;;;;;5105719;28;20500;-60
2023/09/02 02:01:38;;;;;;;1.38;1.00;;;16.40;71.20;;;;;;5106422;28;20055;-60
2023/09/02 02:04:20;;;;;;;1.73;1.00;;;16.40;71.10;;;;;;5103540;28;20512;-61
2023/09/02 02:06:49;;;;;;;1.58;0.93;;;16.30;71.10;;;;;;5100646;28;20044;-60
2023/09/02 02:09:29;;;;;;;1.33;1.00;;;16.30;71.00;;;;;;5101535;28;20549;-60
2023/09/02 02:11:56;;;;;;;1.58;1.00;;;16.30;71.30;;;;;;5103008;28;20114;-60
2023/09/02 02:14:22;;;;;;;1.10;0.90;;;16.30;71.30;;;;;;5104382;28;20831;-60
2023/09/02 02:16:47;;;;;;;4.13;1.02;;;16.30;71.30;;;;;;5110170;28;20033;-60
2023/09/02 02:19:13;;;;;;;2.08;1.00;;;16.20;71.20;;;;;;5108843;28;20114;-60
2023/09/02 02:21:38;;;;;;;4.05;0.90;;;16.20;71.20;;;;;;5109754;28;20115;-60
2023/09/02 02:24:04;;;;;;;1.95;1.00;;;16.20;71.20;;;;;;5103962;28;20028;-61
2023/09/02 02:26:30;;;;;;;1.42;1.00;;;16.20;71.40;;;;;;5105818;27;20027;-60
2023/09/02 02:28:56;;;;;;;2.03;0.90;;;16.20;71.50;;;;;;5111402;27;20034;-61
2023/09/02 02:31:21;;;;;;;4.93;1.27;;;16.10;71.40;;;;;;5109914;27;20027;-60
2023/09/02 02:33:47;;;;;;;1.52;0.90;;;16.10;71.40;;;;;;5104669;27;20528;-61
2023/09/02 02:36:13;;;;;;;5.18;1.20;;;16.10;71.50;;;;;;5100107;28;20034;-61
2023/09/02 02:38:38;;;;;;;1.88;1.27;;;16.10;71.70;;;;;;5092445;27;20023;-60
2023/09/02 02:41:04;;;;;;;2.78;1.00;;;16.10;71.80;;;;;;5101308;27;20032;-60
2023/09/02 02:43:30;;;;;;;6.57;1.17;;;16.10;71.80;;;;;;5106494;27;20039;-60
2023/09/02 02:45:55;;;;;;;2.00;1.08;;;16.10;71.70;;;;;;5106797;27;20397;-60
2023/09/02 02:48:30;;;;;;;1.83;1.13;;;16.10;71.70;;;;;;5102937;27;20031;-61
2023/09/02 02:50:55;;;;;;;;;;;16.10;71.90;;;;;;5112789;27;20401;-60
2023/09/02 02:53:22;;;;;;;2.78;1.05;;;16.10;71.70;;;;;;5103762;27;19911;-60
2023/09/02 02:55:47;;;;;;;2.55;1.08;;;16.00;70.80;;;;;;5107921;27;20684;-60
2023/09/02 02:58:15;;;;;;;3.35;0.93;;;16.00;71.10;;;;;;5109039;27;20027;-61
2023/09/02 03:00:42;;;;;;;1.20;0.93;;;16.00;71.30;;;;;;5107011;27;20558;-60
2023/09/02 03:03:08;;;;;;;3.53;0.90;;;16.00;71.50;;;;;;5112370;27;20035;-60
2023/09/02 03:05:38;;;;;;;1.98;1.00;;;16.00;71.70;;;;;;5104856;27;20080;-60
2023/09/02 03:08:05;;;;;;;3.38;1.20;;;15.90;71.90;;;;;;5104726;27;20557;-60
2023/09/02 03:10:33;;;;;;;1.55;0.93;;;15.90;71.80;;;;;;5104312;27;20016;-61
2023/09/02 03:13:00;;;;;;;1.92;1.10;;;15.90;71.70;;;;;;5102122;28;20038;-62
2023/09/02 03:15:25;;;;;;;5.03;1.10;;;15.80;71.80;;;;;;5109803;27;20550;-60
2023/09/02 03:17:51;;;;;;;1.13;0.90;;;15.80;71.90;;;;;;5101201;27;20067;-60
2023/09/02 03:20:16;;;;;;;4.75;1.30;;;15.80;71.90;;;;;;5087582;27;20058;-60
2023/09/02 03:22:42;;;;;;;4.47;1.05;;;15.80;71.70;;;;;;5107380;27;20106;-60
2023/09/02 03:25:08;;;;;;;1.92;0.88;;;15.80;71.60;;;;;;5108838;27;20053;-60
2023/09/02 03:27:41;;;;;;;1.58;1.23;;;15.80;71.80;;;;;;5110178;27;20093;-60
2023/09/02 03:30:07;;;;;;;5.38;1.20;;;15.70;71.90;;;;;;5098229;27;20394;-61
2023/09/02 03:32:33;;;;;;;2.15;1.02;;;15.70;71.70;;;;;;5103743;28;20028;-60
2023/09/02 03:34:59;;;;;;;2.42;1.20;;;15.70;71.60;;;;;;5105930;27;20537;-60
2023/09/02 03:37:26;;;;;;;1.42;1.10;;;15.70;71.70;;;;;;5109358;27;20490;-61
2023/09/02 03:39:53;;;;;;;1.48;1.00;;;15.70;71.70;;;;;;5104327;27;20061;-60
2023/09/02 03:42:19;;;;;;;1.92;0.90;;;15.70;71.70;;;;;;5086812;27;20494;-60
2023/09/02 03:44:44;;;;;;;2.15;1.02;;;15.70;71.90;;;;;;5101279;27;20023;-60
2023/09/02 03:47:10;;;;;;;4.78;0.90;;;15.60;71.80;;;;;;5110569;27;20024;-61
2023/09/02 03:49:36;;;;;;;0.82;0.80;;;15.60;71.80;;;;;;5114184;27;20031;-60
2023/09/02 03:52:01;;;;;;;1.50;0.93;;;15.60;71.80;;;;;;5089369;27;20031;-60
2023/09/02 03:54:27;;;;;;;4.25;0.90;;;15.60;72.00;;;;;;5100195;27;20090;-60
2023/09/02 03:56:53;;;;;;;1.90;0.95;;;15.60;72.10;;;;;;5100679;27;20031;-61
2023/09/02 03:59:19;;;;;;;2.42;1.10;;;15.50;72.10;;;;;;5111158;27;20031;-60
2023/09/02 04:01:45;;;;;;;2.22;0.77;;;15.50;72.20;;;;;;5083548;28;20031;-60
2023/09/02 04:04:11;;;;;;;3.25;0.90;;;15.50;72.00;;;;;;5104804;27;20065;-60
2023/09/02 04:06:38;;;;;;;4.43;1.00;;;15.50;72.00;;;;;;5087140;28;20043;-60
2023/09/02 04:09:05;;;;;;;4.30;1.00;;;15.50;71.90;;;;;;5107810;27;20032;-59
2023/09/02 04:11:31;;;;;;;1.45;0.88;;;15.50;71.90;;;;;;5101068;27;20032;-60
2023/09/02 04:13:57;;;;;;;2.33;0.98;;;15.40;71.80;;;;;;5103377;27;20457;-61
2023/09/02 04:16:22;;;;;;;7.45;1.20;;;15.40;71.90;;;;;;5105439;27;20023;-60
2023/09/02 04:18:48;;;;;;;1.10;1.00;;;15.40;71.90;;;;;;5105697;27;20023;-60
2023/09/02 04:21:14;;;;;;;6.35;1.10;;;15.40;71.90;;;;;;5104885;27;20023;-61
2023/09/02 04:23:41;;;;;;;1.42;0.80;;;15.40;71.90;;;;;;5106112;27;20036;-60
2023/09/02 04:26:07;;;;;;;4.55;0.90;;;15.40;71.90;;;;;;5106090;27;20032;-61
2023/09/02 04:28:33;;;;;;;1.48;1.00;;;15.30;71.90;;;;;;5100963;27;20096;-59
2023/09/02 04:30:59;;;;;;;1.48;0.93;;;15.30;71.90;;;;;;5101626;27;20031;-61
2023/09/02 04:33:25;;;;;;;1.38;0.90;;;15.30;71.90;;;;;;5109532;27;20015;-60
2023/09/02 04:35:51;;;;;;;3.13;0.95;;;15.30;71.90;;;;;;5107302;27;20059;-61
2023/09/02 04:38:17;;;;;;;1.10;0.90;;;15.30;71.90;;;;;;5110376;27;20062;-61
2023/09/02 04:40:44;;;;;;;0.98;0.70;;;15.20;71.90;;;;;;5103853;27;20057;-61
2023/09/02 04:43:11;;;;;;;3.70;1.00;;;15.30;72.00;;;;;;5103125;28;20040;-60
2023/09/02 04:45:40;;;;;;;2.38;0.90;;;15.20;72.00;;;;;;5103224;28;20027;-60
2023/09/02 04:48:07;;;;;;;1.35;0.90;;;15.20;72.00;;;;;;5102617;27;20099;-60
2023/09/02 04:50:34;;;;;;;1.60;0.80;;;15.20;71.90;;;;;;5102880;28;20080;-60
2023/09/02 04:53:01;;;;;;;1.23;1.00;;;15.20;71.90;;;;;;5087984;28;20027;-60
2023/09/02 04:55:27;;;;;;;1.48;0.90;;;15.10;72.00;;;;;;5084464;28;20019;-60
2023/09/02 04:57:54;;;;;;;0.80;0.80;;;15.10;72.30;;;;;;5109475;27;20110;-60
2023/09/02 05:00:20;;;;;;;1.77;1.10;;;15.10;72.40;;;;;;5101808;27;20028;-60
2023/09/02 05:02:46;;;;;;;1.55;0.90;;;15.10;72.40;;;;;;5103108;27;20039;-60
2023/09/02 05:05:16;;;;;;;2.13;1.00;;;15.10;72.40;;;;;;5106422;27;20480;-61
2023/09/02 05:07:42;;;;;;;1.00;0.93;;;15.10;72.70;;;;;;5100754;27;20516;-60
2023/09/02 05:10:09;;;;;;;5.80;1.02;;;15.10;72.60;;;;;;5107219;27;20027;-61
2023/09/02 05:12:34;;;;;;;2.75;1.02;;;15.10;72.90;;;;;;5103461;27;20031;-60
2023/09/02 05:15:00;;;;;;;3.17;1.00;;;15.20;73.10;;;;;;5096997;27;20027;-62
2023/09/02 05:17:27;;;;;;;2.15;1.10;;;15.20;73.20;;;;;;5111165;27;20023;-60
2023/09/02 05:19:52;;;;;;;1.77;1.10;;;15.20;73.40;;;;;;5107042;27;20431;-61
2023/09/02 05:22:18;;;;;;;3.65;1.13;;;15.30;73.60;;;;;;5100126;28;20028;-60
2023/09/02 05:24:44;;;;;;;1.80;0.90;;;15.30;73.70;;;;;;5109569;27;20509;-60
2023/09/02 05:27:11;;;;;;;4.38;1.02;;;15.40;73.90;;;;;;5105248;27;20369;-60
2023/09/02 05:29:36;;;;;;;1.70;1.20;;;15.50;74.00;;;;;;5098448;28;20538;-60
2023/09/02 05:32:02;;;;;;;3.28;1.20;;;15.50;74.10;;;;;;5103755;27;20034;-60
2023/09/02 05:34:28;;;;;;;4.60;1.20;;;15.60;74.20;;;;;;5111851;27;20020;-61
2023/09/02 05:36:53;;;;;;;4.20;1.20;;;15.70;74.30;;;;;;5107299;28;20504;-60
2023/09/02 05:39:19;;;;;;;1.80;1.10;;;15.80;74.40;;;;;;5097207;28;20125;-60
2023/09/02 05:41:45;;;;;;;6.70;1.33;;;15.90;74.20;;;;;;5098937;28;20036;-61
2023/09/02 05:44:11;;;;;;;1.10;0.93;;;16.00;74.20;;;;;;5090639;28;20039;-61
2023/09/02 05:46:37;;;;;;;1.67;1.05;;;16.10;74.10;;;;;;5096072;28;20073;-60
2023/09/02 05:49:03;;;;;;;2.22;1.08;;;16.20;74.10;;;;;;5108465;28;20480;-60
2023/09/02 05:51:29;;;;;;;1.65;1.10;;;16.30;73.90;;;;;;5100609;28;20020;-60
2023/09/02 05:53:55;;;;;;;3.55;1.10;;;16.40;73.60;;;;;;5085046;28;20513;-60
2023/09/02 05:56:21;;;;;;;4.43;1.48;;;16.50;73.40;;;;;;5107026;28;20028;-60
2023/09/02 05:58:46;;;;;;;2.15;1.13;;;16.50;73.10;;;;;;5098524;28;20077;-62
2023/09/02 06:01:12;;;;;;;2.40;1.10;;;16.60;73.00;;;;;;5107062;27;20020;-61
2023/09/02 06:03:38;;;;;;;2.70;1.00;;;16.70;73.10;;;;;;5110160;27;20185;-60
2023/09/02 06:06:10;;;;;;;2.83;1.08;;;16.80;73.10;;;;;;5102267;27;20019;-60
2023/09/02 06:08:36;;;;;;;8.02;1.27;;;16.80;73.10;;;;;;5104565;27;20047;-60
2023/09/02 06:11:03;;;;;;;1.60;1.10;;;16.90;72.80;;;;;;5104811;27;20083;-60
2023/09/02 06:13:28;;;;;;;3.25;0.70;;;17.00;72.80;;;;;;5103595;27;20019;-60
2023/09/02 06:16:05;;;;;;;4.53;1.10;;;17.00;72.70;;;;;;5103225;27;20024;-60
2023/09/02 06:18:32;;;;;;;3.30;1.25;;;17.10;72.90;;;;;;5107811;27;20453;-61
2023/09/02 06:20:58;;;;;;;2.88;1.30;;;17.20;72.80;;;;;;5099484;27;20026;-61
2023/09/02 06:23:25;;;;;;;4.93;1.08;;;17.40;72.90;;;;;;5106416;28;20039;-60
2023/09/02 06:25:57;;;;;;;1.15;0.90;;;17.50;72.70;;;;;;5101689;27;20024;-60
2023/09/02 06:28:24;;;;;;;2.03;0.98;;;17.60;72.70;;;;;;5037653;27;20031;-61
2023/09/02 06:30:50;;;;;;;2.00;1.40;;;17.70;72.40;;;;;;5108407;27;20028;-61
2023/09/02 06:33:17;;;;;;;1.73;0.90;;;17.80;72.30;;;;;;5085503;28;20271;-61
2023/09/02 06:35:43;;;;;;;3.63;1.08;;;18.00;72.30;;;;;;5101404;28;20517;-60
2023/09/02 06:38:09;;;;;;;7.55;1.10;;;18.10;72.10;;;;;;5104357;28;20032;-60
2023/09/02 06:40:34;;;;;;;4.60;1.23;;;18.20;72.10;;;;;;5104190;28;20022;-59
2023/09/02 06:43:00;;;;;;;3.50;1.00;;;18.30;72.60;;;;;;5102434;27;20032;-60
2023/09/02 06:45:26;;;;;;;3.13;1.00;;;18.40;71.70;;;;;;5104575;27;20031;-60
2023/09/02 06:47:51;;;;;;;1.20;0.88;;;18.50;71.50;;;;;;5110013;27;20087;-61
2023/09/02 06:50:17;;;;;;;3.25;1.10;;;18.60;71.40;;;;;;5099339;27;20023;-62
2023/09/02 06:52:43;;;;;;;1.30;0.85;;;18.70;71.30;;;;;;5107063;27;20063;-61
2023/09/02 06:55:09;;;;;;;1.38;1.02;;;18.90;71.00;;;;;;5101164;27;20385;-62
2023/09/02 06:57:34;;;;;;;4.28;0.80;;;19.00;70.60;;;;;;5112533;27;20541;-63
2023/09/02 07:00:00;;;;;;;3.25;0.85;;;19.10;70.40;;;;;;5093490;28;20020;-62
2023/09/02 07:02:26;;;;;;;2.00;1.08;;;19.20;70.30;;;;;;5111455;27;20121;-63
2023/09/02 07:04:51;;;;;;;2.35;0.90;;;19.40;70.30;;;;;;5099813;27;20279;-61
2023/09/02 07:07:17;;;;;;;7.20;1.13;;;19.50;70.10;;;;;;5112232;27;20051;-61
2023/09/02 07:09:43;;;;;;;6.28;0.95;;;19.60;69.80;;;;;;5110162;27;20514;-62
2023/09/02 07:12:09;;;;;;;1.45;1.00;;;19.70;69.70;;;;;;5108454;27;20413;-61
2023/09/02 07:14:34;;;;;;;3.90;1.02;;;19.90;69.60;;;;;;5108995;27;20034;-62
2023/09/02 07:17:00;;;;;;;1.88;1.00;;;20.00;70.20;;;;;;5094753;27;20027;-61
2023/09/02 07:19:25;;;;;;;3.50;1.08;;;20.10;69.40;;;;;;5098294;27;20498;-61
2023/09/02 07:21:51;;;;;;;3.72;1.27;;;20.30;69.40;;;;;;5105377;27;20032;-61
2023/09/02 07:24:18;;;;;;;3.90;1.50;;;20.40;69.30;;;;;;5098156;28;20375;-61
2023/09/02 07:26:44;;;;;;;2.50;1.23;;;20.50;69.00;;;;;;5110917;27;20029;-61
2023/09/02 07:29:10;;;;;;;1.88;1.10;;;20.70;68.80;;;;;;5013472;27;20023;-62
2023/09/02 07:31:35;;;;;;;2.30;1.23;;;20.80;68.70;;;;;;5100441;27;20019;-61
2023/09/02 07:34:01;;;;;;;3.72;1.00;;;21.00;68.80;;;;;;5102232;27;20039;-62
2023/09/02 07:36:26;;;;;;;2.28;1.35;;;21.10;68.60;;;;;;5110475;27;20032;-61
2023/09/02 07:38:52;;;;;;;2.70;1.20;;;21.20;68.20;;;;;;5105361;27;20043;-62
2023/09/02 07:41:18;;;;;;;4.80;1.27;;;21.40;68.10;;;;;;5108745;27;20031;-61
2023/09/02 07:43:43;;;;;;;1.90;1.13;;;21.50;67.80;;;;;;5101503;27;20138;-62
2023/09/02 07:46:10;;;;;;;2.50;1.40;;;21.60;67.70;;;;;;5105359;27;20565;-62
2023/09/02 07:48:36;;;;;;;2.15;1.35;;;21.80;67.70;;;;;;5104866;27;20529;-62
2023/09/02 07:51:02;;;;;;;2.85;1.30;;;22.00;67.80;;;;;;5102004;27;20098;-61
2023/09/02 07:53:28;;;;;;;1.40;1.25;;;22.10;67.50;;;;;;5101030;27;20390;-61
2023/09/02 07:55:54;;;;;;;3.85;1.30;;;22.20;67.50;;;;;;5101012;27;20027;-61
2023/09/02 07:58:19;;;;;;;2.80;1.48;;;22.40;67.10;;;;;;5102651;27;20065;-61
2023/09/02 08:00:45;;;;;;;2.30;1.30;;;22.50;66.70;;;;;;5099000;27;20043;-62
2023/09/02 08:03:11;;;;;;;2.45;1.33;;;22.60;66.40;;;;;;5095833;27;20043;-61
2023/09/02 08:05:41;;;;;;;4.20;1.33;;;22.80;66.80;;;;;;5099197;27;20027;-61
2023/09/02 08:08:07;;;;;;;3.45;1.20;;;22.90;66.50;;;;;;5103932;27;20047;-61
2023/09/02 08:10:33;;;;;;;1.30;1.10;;;23.00;66.20;;;;;;5086884;28;20020;-62
2023/09/02 08:13:00;;;;;;;3.13;1.33;;;23.20;66.10;;;;;;5102557;27;20027;-59
2023/09/02 08:15:25;;;;;;;1.98;1.45;;;23.30;66.10;;;;;;5102525;27;20028;-62
2023/09/02 08:17:51;;;;;;;1.75;1.33;;;23.50;65.80;;;;;;5102457;27;20038;-61
2023/09/02 08:20:17;;;;;;;4.63;1.38;;;23.60;65.50;;;;;;5096123;27;20538;-61
2023/09/02 08:22:43;;;;;;;4.35;1.20;;;23.80;65.40;;;;;;5097395;27;20052;-61
2023/09/02 08:25:10;;;;;;;3.00;1.35;;;23.90;65.00;;;;;;5100147;27;20032;-63
2023/09/02 08:27:35;;;;;;;2.92;1.33;;;24.00;64.80;;;;;;5017756;27;21091;-62
2023/09/02 08:30:03;;;;;;;2.45;1.25;;;24.10;64.50;;;;;;5104779;27;20153;-62
2023/09/02 08:32:30;;;;;;;1.85;1.20;;;24.20;64.00;;;;;;5096195;27;20030;-63
2023/09/02 08:34:56;;;;;;;2.33;1.40;;;24.40;64.00;;;;;;5101432;27;20078;-62
2023/09/02 08:37:21;;;;;;;5.32;1.20;;;24.50;63.50;;;;;;5104268;27;20024;-62
2023/09/02 08:39:47;;;;;;;2.03;1.50;;;24.70;63.10;;;;;;5105501;27;20059;-62
2023/09/02 08:42:20;;;;;;;2.05;1.20;;;24.80;62.80;;;;;;5103554;28;20034;-62
2023/09/02 08:44:49;;;;;;;1.80;1.10;;;24.90;62.00;;;;;;5101868;27;20031;-63
2023/09/02 08:47:17;;;;;;;2.10;1.20;;;25.00;62.40;;;;;;5098671;28;20118;-62
2023/09/02 08:49:43;;;;;;;6.70;1.83;;;25.10;61.50;;;;;;5102292;27;20027;-63
2023/09/02 08:52:11;;;;;;;1.48;0.98;;;25.30;61.50;;;;;;5109331;27;20362;-62
2023/09/02 08:54:38;;;;;;;3.05;1.10;;;25.40;61.10;;;;;;5104425;27;20059;-61
2023/09/02 08:57:05;;;;;;;2.42;1.10;;;25.50;60.50;;;;;;5107010;27;20048;-63
2023/09/02 08:59:31;;;;;;;2.30;1.02;;;25.70;60.50;;;;;;5108620;27;20334;-62
2023/09/02 09:01:59;;;;;;;1.33;1.10;;;25.80;60.50;;;;;;5105269;27;20051;-62
2023/09/02 09:04:29;;;;;;;2.85;1.10;;;25.90;59.40;;;;;;5108216;27;20030;-62
2023/09/02 09:06:55;;;;;;;1.75;1.30;;;26.00;58.90;;;;;;5094820;27;20047;-63
2023/09/02 09:09:23;;;;;;;1.92;1.15;;;26.00;59.00;;;;;;5080201;28;20020;-63
2023/09/02 09:11:50;;;;;;;2.13;1.15;;;26.20;58.40;;;;;;5107106;27;20026;-62
2023/09/02 09:14:22;;;;;;;2.92;1.20;;;26.20;58.20;;;;;;5103911;27;20023;-62
2023/09/02 09:16:51;;;;;;;2.15;1.27;;;26.30;58.10;;;;;;5099261;28;20036;-61
2023/09/02 09:19:17;;;;;;;2.20;1.17;;;26.40;58.00;;;;;;5096548;28;20028;-61
2023/09/02 09:21:44;;;;;;;1.77;1.30;;;26.50;58.10;;;;;;5101982;27;20023;-62
2023/09/02 09:24:13;;;;;;;3.25;1.10;;;26.60;57.50;;;;;;5080455;28;20039;-62
2023/09/02 09:26:42;;;;;;;2.28;1.20;;;26.70;56.50;;;;;;5100977;28;20105;-63
2023/09/02 09:29:14;;;;;;;1.38;1.15;;;26.80;56.10;;;;;;5105426;27;20032;-62
2023/09/02 09:31:39;;;;;;;1.52;1.10;;;26.80;55.30;;;;;;5093386;27;20031;-62
2023/09/02 09:34:06;;;;;;;2.55;1.30;;;26.90;55.60;;;;;;5096714;28;20039;-63
2023/09/02 09:36:33;;;;;;;1.48;1.00;;;26.90;55.30;;;;;;5107075;27;20026;-62
2023/09/02 09:39:00;;;;;;;2.55;1.08;;;26.90;55.10;;;;;;5104883;27;20023;-63
2023/09/02 09:41:27;;;;;;;1.98;1.33;;;26.90;55.40;;;;;;5109412;28;20608;-62
2023/09/02 09:44:16;;;;;;;1.60;1.17;;;27.00;54.30;;;;;;5100835;28;20411;-62
2023/09/02 09:46:51;;;;;;;1.33;0.88;;;27.00;53.70;;;;;;5095925;28;20026;-62
2023/09/02 09:49:24;;;;;;;3.08;1.10;;;27.10;54.20;;;;;;5108087;28;20500;-63
2023/09/02 09:52:01;;;;;;;1.35;1.15;;;27.10;54.10;;;;;;5088890;28;20024;-61
2023/09/02 09:54:56;;;;;;;1.60;1.05;;;27.30;53.90;;;;;;5105725;28;20090;-62
2023/09/02 09:57:30;;;;;;;2.90;1.30;;;27.30;52.70;;;;;;5100838;28;20032;-62
2023/09/02 09:59:57;;;;;;;26.65;11.48;;;27.40;53.30;;;;;;5101999;28;20164;-62
2023/09/02 10:02:23;;;;;;;12.43;3.80;;;27.40;54.30;;;;;;5107864;28;20483;-62
2023/09/02 10:04:57;;;;;;;19.63;6.63;;;27.50;53.80;;;;;;5096663;28;20517;-62
2023/09/02 10:07:24;;;;;;;;;;;27.60;52.90;;;;;;5097240;28;20522;-62
2023/09/02 10:09:50;;;;;;;7.80;2.58;;;27.70;53.60;;;;;;5106225;28;20267;-62
2023/09/02 10:12:16;;;;;;;5.70;1.63;;;27.80;53.00;;;;;;5100795;28;20024;-62
2023/09/02 10:14:43;;;;;;;8.30;2.90;;;27.80;52.80;;;;;;5101215;28;20032;-63
2023/09/02 10:17:09;;;;;;;4.72;1.38;;;27.90;52.80;;;;;;5103844;28;20482;-62
2023/09/02 10:19:36;;;;;;;1.73;1.00;;;28.00;53.50;;;;;;5094714;28;20032;-62
2023/09/02 10:22:03;;;;;;;1.60;0.90;;;28.00;53.50;;;;;;5100304;28;20504;-62
2023/09/02 10:24:34;;;;;;;2.10;1.10;;;28.20;52.70;;;;;;5108195;28;20486;-63
2023/09/02 10:27:14;;;;;;;5.38;2.25;;;28.30;51.00;;;;;;5105616;28;20433;-63
2023/09/02 10:29:43;;;;;;;2.05;1.00;;;28.40;51.20;;;;;;5109786;28;20043;-63
2023/09/02 10:32:12;;;;;;;1.45;0.82;;;28.50;50.90;;;;;;5082596;28;20020;-62
2023/09/02 10:35:07;;;;;;;1.42;0.98;;;28.60;50.60;;;;;;5097707;28;20489;-63
2023/09/02 10:37:53;;;;;;;1.25;1.00;;;28.70;51.30;;;;;;5086585;28;20119;-63
2023/09/02 10:40:27;;;;;;;2.78;2.33;;;28.80;51.50;;;;;;5103728;28;20078;-62
2023/09/02 10:42:54;;;;;;;1.40;1.15;;;28.90;51.10;;;;;;5103840;28;20041;-62
2023/09/02 10:45:20;;;;;;;1.55;0.85;;;29.00;50.10;;;;;;5102707;28;20370;-62
2023/09/02 10:47:47;;;;;;;2.60;0.98;;;29.10;50.00;;;;;;5109199;27;20049;-62
2023/09/02 10:50:18;;;;;;;1.50;1.00;;;29.20;49.30;;;;;;5086563;27;20034;-62
2023/09/02 10:52:44;;;;;;;2.78;1.00;;;29.30;49.10;;;;;;5108304;27;20020;-63
2023/09/02 10:55:11;;;;;;;1.30;0.85;;;29.40;49.60;;;;;;5084695;28;20031;-63
2023/09/02 10:57:56;;;;;;;2.63;1.17;;;29.40;48.30;;;;;;5100784;27;20028;-63
2023/09/02 11:00:24;;;;;;;3.20;1.40;;;29.40;47.10;;;;;;5099205;28;20379;-63
2023/09/02 11:02:52;;;;;;;1.15;0.90;;;29.40;47.60;;;;;;5103824;27;20031;-62
2023/09/02 11:05:18;;;;;;;2.42;1.08;;;29.40;48.00;;;;;;5106639;27;20023;-63
2023/09/02 11:07:45;;;;;;;3.05;1.50;;;29.40;48.00;;;;;;5101014;27;20055;-62
2023/09/02 11:10:11;;;;;;;1.77;1.00;;;29.30;47.60;;;;;;5099248;27;20046;-62
2023/09/02 11:12:57;;;;;;;1.50;0.93;;;29.20;47.60;;;;;;5107110;27;20130;-62
2023/09/02 11:15:23;;;;;;;1.60;0.88;;;29.20;48.10;;;;;;5100042;27;20019;-62
2023/09/02 11:17:49;;;;;;;2.72;1.10;;;29.20;47.90;;;;;;5100835;27;20029;-62
2023/09/02 11:20:19;;;;;;;1.33;0.80;;;29.30;48.20;;;;;;5096733;27;20023;-63
2023/09/02 11:23:01;;;;;;;1.67;1.00;;;29.40;48.30;;;;;;5103971;27;20028;-62
2023/09/02 11:25:28;;;;;;;4.55;1.00;;;29.50;47.80;;;;;;5102356;27;20430;-62
2023/09/02 11:27:55;;;;;;;1.30;1.00;;;29.40;47.40;;;;;;5008322;27;20136;-62
2023/09/02 11:30:25;;;;;;;1.55;0.90;;;29.40;47.20;;;;;;5108358;27;20023;-62
2023/09/02 11:32:51;;;;;;;0.80;0.80;;;29.30;47.60;;;;;;5102786;27;20484;-63
2023/09/02 11:35:33;;;;;;;1.10;0.98;;;29.30;47.70;;;;;;5107467;27;20031;-63
2023/09/02 11:38:00;;;;;;;1.70;1.20;;;29.20;47.00;;;;;;5103678;27;20016;-63
2023/09/02 11:40:27;;;;;;;1.90;1.50;;;29.20;48.40;;;;;;5101682;28;20393;-63
2023/09/02 11:42:59;;;;;;;1.33;0.88;;;29.30;48.40;;;;;;5103198;27;20504;-62
2023/09/02 11:45:27;;;;;;;2.22;1.27;;;29.30;47.90;;;;;;5104523;27;20120;-62
2023/09/02 11:47:53;;;;;;;1.77;1.20;;;29.30;48.20;;;;;;5107662;27;20031;-62
2023/09/02 11:50:20;;;;;;;1.55;0.88;;;29.30;47.70;;;;;;5103319;28;20035;-62
2023/09/02 11:52:51;;;;;;;4.28;2.38;;;29.20;46.70;;;;;;5112015;27;20035;-61
2023/09/02 11:55:17;;;;;;;5.20;2.00;;;29.20;47.20;;;;;;5103113;28;20104;-62
2023/09/02 11:57:44;;;;;;;1.95;1.33;;;29.00;47.10;;;;;;5103610;28;20497;-63
2023/09/02 12:00:21;;;;;;;4.13;1.55;;;28.90;47.50;;;;;;5110144;27;20024;-63
2023/09/02 12:02:50;;;;;;;2.28;1.20;;;28.80;46.70;;;;;;5097438;27;20035;-63
2023/09/02 12:05:16;;;;;;;1.92;1.10;;;28.70;47.60;;;;;;5104689;27;20024;-62
2023/09/02 12:07:44;;;;;;;2.50;0.98;;;28.70;47.80;;;;;;5101632;27;20047;-62
2023/09/02 12:10:11;;;;;;;1.15;0.90;;;28.70;47.30;;;;;;5083293;28;20020;-62
2023/09/02 12:12:48;;;;;;;3.15;1.08;;;28.70;47.40;;;;;;5109392;27;20033;-63
2023/09/02 12:15:18;;;;;;;1.48;0.90;;;28.70;46.40;;;;;;5101784;27;20334;-63
2023/09/02 12:17:46;;;;;;;1.08;0.98;;;28.70;47.20;;;;;;5104542;27;20019;-62
2023/09/02 12:20:16;;;;;;;2.70;1.13;;;28.70;47.60;;;;;;5110441;27;20027;-62
2023/09/02 12:22:43;;;;;;;3.30;1.40;;;28.70;46.80;;;;;;5090836;27;20494;-62
2023/09/02 12:25:12;;;;;;;1.50;0.93;;;28.70;47.50;;;;;;5114195;27;20114;-63
2023/09/02 12:27:37;;;;;;;1.00;0.90;;;28.70;47.10;;;;;;5054363;27;20031;-63
2023/09/02 12:30:03;;;;;;;1.33;0.93;;;28.80;47.40;;;;;;5105381;27;20032;-63
2023/09/02 12:32:29;;;;;;;1.58;1.10;;;28.90;47.20;;;;;;5085571;28;20077;-61
2023/09/02 12:34:56;;;;;;;1.67;0.85;;;29.10;47.70;;;;;;5102818;27;20512;-63
2023/09/02 12:37:22;;;;;;;2.15;0.95;;;29.20;47.50;;;;;;5093918;27;20027;-62
2023/09/02 12:39:51;;;;;;;1.17;0.93;;;29.40;47.70;;;;;;5107540;27;20489;-63
2023/09/02 12:42:27;;;;;;;1.35;0.93;;;29.60;46.40;;;;;;5108159;27;20023;-62
2023/09/02 12:45:00;;;;;;;0.77;0.70;;;29.80;46.90;;;;;;5111398;27;20070;-63
2023/09/02 12:47:27;;;;;;;0.87;0.77;;;30.10;46.90;;;;;;5107472;27;20027;-62
2023/09/02 12:49:58;;;;;;;1.30;0.80;;;30.30;46.20;;;;;;5089643;27;20843;-62